Time;durP1;ratioP1;P1;durP2;ratioP2;P2;SDS_P1;SDS_P2;PMS_P1;PMS_P2;Temp;Humidity;BMP_temperature;BMP_pressure;BME280_temperature;BME280_humidity;BME280_pressure;Samples;Min_cycle;Max_cycle;Signal;HPM_P1;HPM_P2
2022/12/14 00:43:48;;;;;;;29.93;18.47;;;12.30;73.30;;;;;;4587241;19;20493;-31
2022/12/14 00:45:20;;;;;;;30.90;19.53;;;12.30;73.20;;;;;;4591724;19;20453;-29
2022/12/14 00:46:52;;;;;;;;;;;12.30;73.20;;;;;;4591853;19;20429;-29
2022/12/14 00:48:23;;;;;;;30.27;19.33;;;12.30;73.20;;;;;;4591607;19;20327;-28
2022/12/14 00:49:54;;;;;;;28.88;18.83;;;12.30;73.10;;;;;;4589105;19;20460;-29
2022/12/14 00:51:26;;;;;;;29.08;19.73;;;12.30;72.70;;;;;;4590208;19;20007;-29
2022/12/14 00:52:57;;;;;;;31.45;21.48;;;12.30;72.80;;;;;;4589401;19;20014;-28
2022/12/14 00:54:30;;;;;;;31.50;18.90;;;12.30;72.70;;;;;;4589597;19;20472;-28
2022/12/14 00:56:07;;;;;;;31.83;21.33;;;12.30;72.70;;;;;;4590296;19;20485;-31
2022/12/14 00:57:39;;;;;;;33.27;20.33;;;12.30;72.70;;;;;;4588939;19;20006;-29
2022/12/14 00:59:10;;;;;;;34.38;20.83;;;12.30;72.70;;;;;;4589408;19;20445;-29
2022/12/14 01:00:44;;;;;;;33.50;21.17;;;12.30;72.70;;;;;;4590855;19;20024;-30
2022/12/14 01:02:16;;;;;;;34.27;21.07;;;12.30;72.80;;;;;;4590568;19;20456;-29
2022/12/14 01:03:49;;;;;;;33.17;21.30;;;12.30;72.70;;;;;;4589961;19;20448;-30
2022/12/14 01:05:20;;;;;;;33.95;21.92;;;12.30;72.70;;;;;;4588973;19;20485;-29
2022/12/14 01:06:52;;;;;;;34.03;20.77;;;12.30;72.60;;;;;;4590215;19;20015;-29
2022/12/14 01:08:33;;;;;;;30.37;20.10;;;12.30;72.70;;;;;;4589448;19;20465;-29
2022/12/14 01:10:06;;;;;;;33.63;20.93;;;12.20;72.70;;;;;;4589417;19;20452;-29
2022/12/14 01:11:39;;;;;;;31.05;21.50;;;12.20;72.50;;;;;;4590325;19;20436;-29
2022/12/14 01:13:10;;;;;;;38.17;23.10;;;12.30;72.60;;;;;;4590265;19;20014;-29
2022/12/14 01:14:45;;;;;;;35.87;21.90;;;12.30;72.50;;;;;;4590896;19;20751;-29
2022/12/14 01:16:16;;;;;;;40.17;24.40;;;12.20;72.40;;;;;;4589910;19;20480;-28
2022/12/14 01:17:49;;;;;;;38.17;22.73;;;12.20;72.50;;;;;;4589886;19;20433;-28
2022/12/14 01:19:22;;;;;;;36.13;23.53;;;12.20;72.40;;;;;;4587735;19;20359;-29
2022/12/14 01:20:54;;;;;;;34.43;23.57;;;12.30;72.40;;;;;;4588336;19;20591;-30
2022/12/14 01:22:25;;;;;;;36.10;22.17;;;12.20;72.10;;;;;;4587762;19;20514;-30
2022/12/14 01:24:00;;;;;;;39.97;24.37;;;12.20;72.30;;;;;;4587705;19;20017;-30
2022/12/14 01:25:32;;;;;;;44.87;27.67;;;12.20;72.20;;;;;;4588071;19;21147;-29
2022/12/14 01:27:03;;;;;;;39.92;25.50;;;12.20;72.00;;;;;;4587827;19;20457;-28
2022/12/14 01:28:34;;;;;;;41.20;26.25;;;12.20;71.90;;;;;;4587523;19;20039;-28
2022/12/14 01:30:07;;;;;;;38.00;25.10;;;12.20;71.70;;;;;;4587376;19;20503;-28
2022/12/14 01:31:39;;;;;;;46.58;27.88;;;12.30;71.90;;;;;;4587993;19;20455;-29
2022/12/14 01:33:12;;;;;;;43.03;26.73;;;12.20;71.80;;;;;;4588019;19;20015;-28
2022/12/14 01:34:46;;;;;;;46.77;28.90;;;12.20;71.80;;;;;;4587603;19;20771;-32
2022/12/14 01:36:23;;;;;;;46.47;28.17;;;12.20;71.70;;;;;;4587432;19;20910;-31
2022/12/14 01:37:56;;;;;;;43.23;28.10;;;12.20;71.80;;;;;;4588030;19;20997;-30
2022/12/14 01:39:28;;;;;;;46.30;29.43;;;12.20;71.70;;;;;;4587666;19;20535;-29
2022/12/14 01:40:59;;;;;;;45.28;29.67;;;12.20;71.70;;;;;;4587411;19;20468;-30
2022/12/14 01:42:32;;;;;;;37.78;26.27;;;12.20;71.80;;;;;;4587457;19;20100;-29
2022/12/14 04:51:00;;;;;;;33.87;26.17;;;12.20;74.90;;;;;;4588275;19;20803;-27
2022/12/14 04:52:38;;;;;;;32.27;24.97;;;12.30;74.90;;;;;;4589116;19;20747;-27
2022/12/14 04:54:20;;;;;;;34.33;27.27;;;12.40;74.70;;;;;;4589836;19;20460;-29
2022/12/14 04:56:00;;;;;;;35.20;28.03;;;12.50;74.60;;;;;;4589369;19;20425;-27
2022/12/14 04:57:44;;;;;;;36.42;26.67;;;12.50;74.50;;;;;;4589468;19;20418;-28
2022/12/14 04:59:15;;;;;;;34.67;26.33;;;12.50;74.50;;;;;;4590175;19;20014;-27
2022/12/14 05:01:10;;;;;;;36.05;26.13;;;12.50;74.40;;;;;;4590396;19;20445;-29
2022/12/14 05:03:09;;;;;;;33.17;26.20;;;12.50;74.40;;;;;;4587806;19;20015;-29
2022/12/14 05:04:55;;;;;;;37.37;28.00;;;12.50;74.40;;;;;;4588301;19;20520;-28
2022/12/14 05:06:49;;;;;;;44.00;33.33;;;12.50;74.40;;;;;;4588092;19;20421;-28
2022/12/14 05:09:02;;;;;;;39.27;30.83;;;12.60;74.30;;;;;;4588179;19;20465;-28
2022/12/14 05:10:36;;;;;;;38.97;30.13;;;12.60;74.30;;;;;;4587590;19;20020;-29
2022/12/14 05:12:25;;;;;;;36.40;28.30;;;12.50;74.30;;;;;;4587210;19;20516;-30
2022/12/14 05:13:57;;;;;;;36.10;28.10;;;12.50;74.30;;;;;;4587179;19;20667;-26
2022/12/14 05:15:45;;;;;;;38.45;29.75;;;12.50;74.30;;;;;;4587220;19;20484;-29
2022/12/14 05:17:16;;;;;;;38.50;29.77;;;12.50;74.40;;;;;;4586928;19;20085;-30
2022/12/14 05:18:48;;;;;;;33.65;26.40;;;12.60;74.30;;;;;;4588421;19;20401;-27
2022/12/14 05:20:21;;;;;;;33.85;26.75;;;12.60;74.40;;;;;;4586831;19;20032;-30
2022/12/14 05:21:53;;;;;;;29.50;24.30;;;12.60;74.30;;;;;;4588549;19;20018;-33
2022/12/14 05:23:25;;;;;;;32.17;25.67;;;12.50;74.50;;;;;;4587379;19;20073;-28
2022/12/14 05:24:57;;;;;;;36.00;27.03;;;12.60;74.30;;;;;;4588046;19;20607;-34
2022/12/14 05:26:30;;;;;;;41.45;32.08;;;12.60;74.70;;;;;;4587697;19;20574;-29
2022/12/14 05:28:02;;;;;;;44.60;35.60;;;12.60;74.40;;;;;;4585164;19;20025;-32
2022/12/14 05:29:33;;;;;;;40.85;33.10;;;12.60;75.50;;;;;;4586916;19;20904;-29
2022/12/14 05:31:04;;;;;;;38.63;30.27;;;12.60;75.50;;;;;;4586116;19;20031;-30
2022/12/14 05:32:36;;;;;;;32.13;26.30;;;12.50;75.90;;;;;;4587463;19;20022;-33
2022/12/14 05:34:07;;;;;;;30.67;24.05;;;12.50;76.00;;;;;;4586931;19;20040;-32
2022/12/14 05:35:38;;;;;;;30.25;24.27;;;12.40;75.90;;;;;;4588313;19;20032;-31
2022/12/14 05:37:09;;;;;;;28.05;22.90;;;12.40;75.80;;;;;;4585980;19;20026;-38
2022/12/14 05:38:40;;;;;;;29.15;22.83;;;12.40;75.50;;;;;;4585610;19;20684;-34
2022/12/14 05:40:12;;;;;;;32.28;26.58;;;12.40;75.30;;;;;;4588412;19;20015;-29
2022/12/14 05:41:43;;;;;;;33.47;25.65;;;12.40;75.50;;;;;;4589844;19;20015;-31
2022/12/14 05:43:14;;;;;;;;;;;12.40;75.50;;;;;;4589912;19;20019;-30
2022/12/14 05:44:46;;;;;;;38.70;27.67;;;12.40;75.20;;;;;;4589027;19;19915;-31
2022/12/14 05:46:17;;;;;;;34.58;24.58;;;12.30;75.00;;;;;;4588922;19;20914;-29
2022/12/14 05:47:48;;;;;;;;;;;12.30;74.90;;;;;;4588583;19;20011;-29
2022/12/14 05:49:20;;;;;;;31.47;24.97;;;12.30;75.00;;;;;;4588416;19;20388;-30
2022/12/14 05:50:51;;;;;;;32.78;24.85;;;12.30;75.00;;;;;;4588843;19;20018;-29
2022/12/14 06:17:01;;;;;;;51.80;40.97;;;12.40;74.10;;;;;;4595736;19;21016;-33
2022/12/14 06:18:33;;;;;;;60.00;45.35;;;12.50;74.00;;;;;;4592321;19;21032;-28
2022/12/14 06:20:05;;;;;;;52.80;36.08;;;12.40;73.70;;;;;;4593138;19;20014;-31
2022/12/14 06:21:38;;;;;;;44.70;32.00;;;12.40;73.70;;;;;;4594014;19;20015;-35
2022/12/14 06:23:10;;;;;;;43.97;30.80;;;12.30;73.70;;;;;;4593892;19;20464;-37
2022/12/14 06:24:42;;;;;;;37.63;26.03;;;12.30;73.30;;;;;;4593288;19;20818;-35
2022/12/14 06:26:14;;;;;;;45.47;29.23;;;12.20;73.50;;;;;;4593724;19;20536;-35
2022/12/14 06:27:45;;;;;;;38.22;27.10;;;12.20;73.40;;;;;;4592705;19;20480;-30
2022/12/14 06:29:19;;;;;;;39.27;27.33;;;12.20;73.50;;;;;;4593573;19;20010;-31
2022/12/14 06:30:50;;;;;;;40.88;29.20;;;12.20;73.40;;;;;;4592119;19;20823;-39
2022/12/14 06:32:22;;;;;;;33.70;24.85;;;12.20;73.40;;;;;;4593760;19;20011;-30
2022/12/14 06:33:56;;;;;;;38.40;26.90;;;12.20;73.50;;;;;;4593855;19;20486;-30
2022/12/14 06:35:28;;;;;;;35.03;26.30;;;12.20;73.30;;;;;;4592698;19;20448;-29
2022/12/14 06:37:00;;;;;;;33.80;26.17;;;12.20;73.30;;;;;;4592157;19;20456;-36
2022/12/14 06:38:34;;;;;;;35.60;26.47;;;12.20;73.60;;;;;;4592778;19;20433;-30
2022/12/14 06:40:07;;;;;;;31.57;24.53;;;12.20;73.40;;;;;;4593427;19;20532;-32
2022/12/14 06:41:39;;;;;;;;;;;12.10;73.00;;;;;;4594641;19;21013;-30
2022/12/14 06:43:10;;;;;;;35.03;24.38;;;12.20;73.20;;;;;;4593544;19;19911;-37
2022/12/14 06:44:42;;;;;;;32.73;24.33;;;12.20;73.30;;;;;;4593159;19;20011;-31
2022/12/14 06:46:15;;;;;;;33.37;24.70;;;12.20;73.10;;;;;;4593678;19;21008;-33
2022/12/14 06:47:49;;;;;;;31.97;24.60;;;12.10;73.00;;;;;;4592900;19;20455;-31
2022/12/14 06:49:21;;;;;;;35.00;24.67;;;12.20;73.30;;;;;;4593084;19;20443;-34
2022/12/14 06:50:52;;;;;;;36.15;26.48;;;12.20;73.30;;;;;;4592412;19;20014;-32
2022/12/14 06:52:24;;;;;;;34.20;25.60;;;12.20;73.50;;;;;;4590854;19;20539;-35
2022/12/14 06:53:56;;;;;;;37.05;25.02;;;12.20;73.60;;;;;;4590616;19;21043;-29
2022/12/14 06:55:28;;;;;;;35.13;25.67;;;12.10;73.60;;;;;;4590587;19;20078;-30
2022/12/14 06:57:00;;;;;;;35.27;24.90;;;12.10;73.60;;;;;;4590679;19;20576;-30
2022/12/14 06:58:31;;;;;;;35.10;28.38;;;12.10;73.60;;;;;;4590805;19;20440;-31
2022/12/14 07:00:04;;;;;;;36.10;27.73;;;12.10;73.60;;;;;;4590831;19;20020;-32
2022/12/14 07:01:36;;;;;;;36.83;27.47;;;12.10;73.60;;;;;;4590352;19;20451;-33
2022/12/14 07:03:09;;;;;;;28.23;22.33;;;12.10;73.30;;;;;;4590320;19;20493;-38
2022/12/14 07:04:42;;;;;;;32.37;24.20;;;12.10;73.30;;;;;;4591019;19;20433;-30
2022/12/14 07:06:15;;;;;;;31.87;23.73;;;12.10;73.40;;;;;;4590312;19;20436;-32
2022/12/14 07:07:48;;;;;;;29.02;22.08;;;12.10;73.30;;;;;;4591600;19;21100;-33
2022/12/14 07:09:19;;;;;;;32.57;25.87;;;12.10;73.20;;;;;;4589901;19;20053;-29
2022/12/14 07:10:51;;;;;;;34.60;27.10;;;12.10;73.00;;;;;;4588378;19;20488;-28
2022/12/14 07:12:23;;;;;;;40.83;32.47;;;12.10;73.10;;;;;;4592028;19;20096;-32
2022/12/14 07:14:18;;;;;;;36.13;27.90;;;12.10;73.00;;;;;;4588766;19;20842;-29
2022/12/14 07:15:54;;;;;;;33.20;24.07;;;12.20;72.90;;;;;;4589009;19;20015;-30
2022/12/14 07:40:20;;;;;;;36.73;24.20;;;12.20;72.90;;;;;;4590895;19;20466;-28
2022/12/14 07:41:53;;;;;;;40.10;28.67;;;12.20;73.00;;;;;;4591608;19;20505;-28
2022/12/14 07:43:25;;;;;;;35.07;25.57;;;12.30;73.30;;;;;;4593281;19;20449;-30
2022/12/14 07:44:57;;;;;;;33.58;25.35;;;12.30;73.30;;;;;;4589508;19;20489;-31
2022/12/14 07:46:29;;;;;;;33.67;23.67;;;12.30;73.40;;;;;;4591540;19;20472;-28
2022/12/14 07:48:01;;;;;;;30.23;22.37;;;12.30;73.50;;;;;;4590540;19;20515;-34
2022/12/14 07:49:32;;;;;;;36.50;28.63;;;12.40;73.30;;;;;;4593209;19;20566;-30
2022/12/14 07:51:09;;;;;;;40.87;27.60;;;12.50;73.30;;;;;;4589384;19;20807;-29
2022/12/14 07:52:41;;;;;;;44.13;30.30;;;12.50;73.00;;;;;;4590138;19;20601;-27
2022/12/14 07:54:13;;;;;;;34.63;25.17;;;12.50;73.00;;;;;;4593101;19;20792;-31
2022/12/14 07:55:44;;;;;;;27.83;20.53;;;12.50;72.90;;;;;;4592071;19;20479;-28
2022/12/14 07:57:16;;;;;;;32.92;25.08;;;12.50;72.70;;;;;;4590230;19;20477;-32
2022/12/14 07:58:48;;;;;;;31.03;23.30;;;12.50;72.40;;;;;;4590329;19;20023;-35
2022/12/14 08:00:21;;;;;;;36.00;25.95;;;12.50;72.60;;;;;;4589757;19;20478;-41
2022/12/14 08:01:54;;;;;;;32.27;24.47;;;12.50;72.50;;;;;;4590416;19;20078;-36
2022/12/14 08:03:25;;;;;;;33.27;25.70;;;12.50;72.60;;;;;;4590184;19;20882;-31
2022/12/14 08:04:59;;;;;;;33.93;29.97;;;12.50;72.50;;;;;;4590692;19;21137;-28
2022/12/14 08:06:32;;;;;;;30.00;24.70;;;12.50;72.60;;;;;;4591473;19;20460;-28
2022/12/14 08:08:03;;;;;;;25.05;19.75;;;12.40;72.30;;;;;;4588759;19;20468;-28
2022/12/14 08:09:34;;;;;;;25.23;18.00;;;12.40;72.20;;;;;;4588552;19;20014;-30
2022/12/14 08:11:05;;;;;;;22.63;16.77;;;12.30;72.20;;;;;;4586910;19;20018;-27
2022/12/14 08:12:36;;;;;;;21.70;17.08;;;12.30;72.00;;;;;;4588088;19;20068;-28
2022/12/14 08:14:11;;;;;;;25.95;18.73;;;12.30;72.40;;;;;;4587935;19;20022;-32
2022/12/14 08:15:42;;;;;;;27.43;20.07;;;12.30;72.20;;;;;;4586581;19;20027;-28
2022/12/14 08:17:16;;;;;;;24.85;19.42;;;12.30;72.30;;;;;;4587471;19;20502;-28
2022/12/14 08:18:48;;;;;;;25.50;20.07;;;12.30;72.10;;;;;;4588660;19;20029;-28
2022/12/14 08:20:19;;;;;;;25.23;20.73;;;12.30;72.30;;;;;;4589280;19;20926;-28
2022/12/14 08:21:51;;;;;;;24.83;19.33;;;12.30;72.50;;;;;;4590106;19;20592;-32
2022/12/14 08:23:23;;;;;;;27.80;21.57;;;12.30;72.50;;;;;;4588977;19;20066;-30
2022/12/14 08:24:54;;;;;;;28.77;21.77;;;12.30;72.80;;;;;;4589302;19;20477;-36
2022/12/14 08:26:26;;;;;;;28.90;21.73;;;12.30;72.80;;;;;;4590236;19;20082;-33
2022/12/14 08:27:58;;;;;;;30.03;24.27;;;12.20;72.50;;;;;;4591376;19;21115;-37
2022/12/14 08:29:31;;;;;;;22.53;18.13;;;12.20;72.70;;;;;;4589895;19;20823;-35
2022/12/14 08:31:16;;;;;;;21.97;16.97;;;12.20;72.50;;;;;;4588005;19;20484;-33
2022/12/14 08:32:50;;;;;;;24.77;19.17;;;12.20;72.60;;;;;;4588608;19;20808;-34
2022/12/14 08:34:23;;;;;;;25.13;19.63;;;12.20;72.80;;;;;;4589497;19;20416;-34
2022/12/14 08:35:55;;;;;;;27.93;23.53;;;12.20;72.60;;;;;;4590897;19;20432;-37
2022/12/14 08:37:26;;;;;;;33.92;30.25;;;12.20;72.90;;;;;;4590424;19;20827;-35
2022/12/14 08:38:59;;;;;;;65.43;51.05;;;12.20;73.00;;;;;;4588957;19;20085;-27
2022/12/14 08:40:30;;;;;;;70.17;53.67;;;12.20;73.00;;;;;;4588694;19;20011;-28
2022/12/14 08:49:05;;;;;;;41.13;29.13;;;12.20;73.10;;;;;;4588946;19;20465;-31
2022/12/14 08:50:36;;;;;;;35.75;28.42;;;12.20;72.90;;;;;;4588317;19;21097;-31
2022/12/14 08:52:09;;;;;;;34.03;26.73;;;12.20;73.20;;;;;;4588151;19;20019;-34
2022/12/14 08:53:40;;;;;;;30.77;24.87;;;12.20;72.90;;;;;;4590295;19;20501;-34
2022/12/14 08:55:12;;;;;;;33.23;26.87;;;12.20;73.00;;;;;;4588586;19;20465;-33
2022/12/14 08:56:43;;;;;;;37.10;28.10;;;12.20;73.00;;;;;;4590778;19;20795;-33
2022/12/14 08:58:15;;;;;;;41.45;31.10;;;12.20;73.20;;;;;;4588320;19;20021;-28
2022/12/14 08:59:46;;;;;;;49.05;34.97;;;12.20;73.30;;;;;;4587505;19;20030;-30
2022/12/14 09:01:20;;;;;;;35.10;27.57;;;12.20;73.70;;;;;;4588871;19;20035;-28
2022/12/14 09:02:53;;;;;;;37.77;26.90;;;12.20;73.10;;;;;;4588254;19;20486;-30
2022/12/14 09:04:25;;;;;;;44.63;33.83;;;12.10;72.90;;;;;;4590379;19;20511;-28
2022/12/14 09:06:00;;;;;;;36.03;28.70;;;12.10;73.00;;;;;;4589490;19;20493;-27
2022/12/14 09:07:33;;;;;;;31.23;23.67;;;12.10;73.20;;;;;;4589628;19;20453;-30
2022/12/14 09:09:05;;;;;;;28.43;21.57;;;12.10;73.10;;;;;;4587861;19;20836;-29
2022/12/14 09:10:38;;;;;;;26.70;21.83;;;12.20;73.30;;;;;;4587566;19;20481;-30
2022/12/14 09:12:09;;;;;;;28.83;22.23;;;12.20;73.40;;;;;;4587950;19;20436;-30
2022/12/14 09:13:42;;;;;;;29.97;23.37;;;12.20;73.40;;;;;;4589325;19;20022;-28
2022/12/14 09:15:16;;;;;;;32.20;25.07;;;12.30;73.40;;;;;;4590038;19;20433;-28
2022/12/14 09:16:48;;;;;;;28.70;22.70;;;12.20;73.50;;;;;;4591358;19;20498;-28
2022/12/14 09:18:20;;;;;;;29.27;23.00;;;12.20;73.50;;;;;;4590492;19;20448;-28
2022/12/14 09:19:51;;;;;;;28.45;23.05;;;12.20;73.00;;;;;;4589045;19;20471;-28
2022/12/14 09:21:26;;;;;;;25.77;20.33;;;12.20;73.20;;;;;;4588811;19;20036;-28
2022/12/14 09:22:57;;;;;;;;;;;12.20;73.30;;;;;;4590220;19;20455;-28
2022/12/14 09:24:29;;;;;;;23.93;19.57;;;12.10;73.20;;;;;;4589285;19;20243;-27
2022/12/14 09:26:07;;;;;;;25.13;19.60;;;12.10;73.50;;;;;;4588881;19;20015;-29
2022/12/14 09:27:39;;;;;;;25.53;20.83;;;12.10;73.50;;;;;;4594356;19;20025;-28
2022/12/14 09:29:13;;;;;;;29.27;21.57;;;12.10;73.20;;;;;;4594563;19;20464;-29
2022/12/14 09:30:46;;;;;;;29.90;24.33;;;12.10;73.30;;;;;;4591007;19;20943;-28
2022/12/14 09:32:17;;;;;;;27.77;21.00;;;12.10;73.20;;;;;;4593605;19;20489;-28
2022/12/14 09:33:49;;;;;;;28.63;21.10;;;12.10;73.00;;;;;;4595210;19;20018;-29
2022/12/14 09:35:22;;;;;;;27.83;22.40;;;12.10;73.00;;;;;;4593995;19;21228;-37
2022/12/14 09:36:53;;;;;;;26.50;20.58;;;12.10;73.10;;;;;;4594058;19;20487;-31
2022/12/14 09:38:24;;;;;;;26.65;20.67;;;12.10;73.30;;;;;;4596280;19;20022;-28
2022/12/14 09:39:55;;;;;;;28.92;23.58;;;12.10;73.60;;;;;;4594603;19;20031;-28
2022/12/14 09:41:33;;;;;;;24.50;19.37;;;12.10;73.70;;;;;;4594240;19;20010;-28
2022/12/14 09:43:05;;;;;;;22.73;17.77;;;12.10;73.30;;;;;;4594592;19;20452;-28
2022/12/14 09:44:42;;;;;;;22.75;18.08;;;12.10;73.20;;;;;;4595446;19;20452;-27
2022/12/14 09:46:19;;;;;;;21.97;17.47;;;12.10;73.20;;;;;;4593809;19;20041;-27
2022/12/14 09:48:03;;;;;;;24.30;18.60;;;12.10;73.30;;;;;;4592911;19;20421;-28
2022/12/14 09:58:23;;;;;;;25.53;20.03;;;12.10;72.80;;;;;;4592316;19;20468;-30
2022/12/14 09:59:54;;;;;;;24.80;20.10;;;12.10;72.80;;;;;;4592561;19;20588;-28
2022/12/14 10:01:48;;;;;;;24.80;19.77;;;12.10;72.90;;;;;;4595102;19;20449;-29
2022/12/14 10:03:54;;;;;;;26.37;21.37;;;12.10;73.10;;;;;;4593907;19;20007;-27
2022/12/14 10:05:54;;;;;;;25.40;19.10;;;12.00;73.10;;;;;;4594144;19;20429;-28
2022/12/14 10:07:38;;;;;;;25.83;20.30;;;12.10;73.30;;;;;;4594565;19;20476;-28
2022/12/14 10:09:26;;;;;;;28.03;22.10;;;12.10;73.30;;;;;;4594918;19;20560;-30
2022/12/14 10:11:00;;;;;;;25.50;20.47;;;12.20;73.30;;;;;;4594081;19;20816;-28
2022/12/14 10:12:37;;;;;;;23.40;17.87;;;12.20;73.00;;;;;;4592898;19;20420;-28
2022/12/14 10:14:15;;;;;;;26.70;21.20;;;12.20;73.10;;;;;;4594746;19;20527;-28
2022/12/14 10:16:03;;;;;;;25.23;20.47;;;12.20;73.20;;;;;;4595365;19;20477;-29
2022/12/14 10:18:06;;;;;;;25.07;19.33;;;12.20;73.20;;;;;;4592123;19;20432;-29
2022/12/14 10:19:56;;;;;;;24.23;19.33;;;12.20;73.30;;;;;;4593898;19;20503;-28
2022/12/14 10:21:56;;;;;;;24.77;17.80;;;12.20;73.00;;;;;;4594814;19;20453;-28
2022/12/14 10:23:27;;;;;;;24.90;18.23;;;12.20;72.60;;;;;;4590716;19;20858;-29
2022/12/14 10:25:06;;;;;;;26.33;19.93;;;12.20;72.50;;;;;;4592788;19;20461;-30
2022/12/14 10:26:41;;;;;;;28.73;22.90;;;12.20;72.70;;;;;;4591214;19;20468;-29
2022/12/14 10:28:20;;;;;;;34.70;25.17;;;12.20;72.70;;;;;;4592445;19;20531;-29
2022/12/14 10:30:15;;;;;;;34.83;27.07;;;12.20;72.60;;;;;;4591903;19;20456;-28
2022/12/14 10:32:06;;;;;;;38.53;28.70;;;12.20;72.90;;;;;;4590690;19;20544;-29
2022/12/14 10:33:46;;;;;;;36.33;26.20;;;12.20;72.90;;;;;;4590839;19;20500;-29
2022/12/14 10:35:18;;;;;;;31.63;25.02;;;12.20;73.00;;;;;;4591346;19;20473;-28
2022/12/14 10:37:01;;;;;;;34.50;26.80;;;12.20;73.10;;;;;;4591231;19;20468;-29
2022/12/14 10:38:55;;;;;;;34.53;27.30;;;12.10;73.00;;;;;;4589172;19;20485;-27
2022/12/14 10:40:29;;;;;;;38.97;30.20;;;12.20;72.70;;;;;;4590851;19;20997;-28
2022/12/14 10:42:22;;;;;;;38.67;30.43;;;12.20;72.70;;;;;;4590605;19;21080;-27
2022/12/14 10:44:07;;;;;;;42.33;33.57;;;12.20;72.70;;;;;;4590757;19;20489;-30
2022/12/14 10:45:45;;;;;;;42.57;33.63;;;12.20;72.40;;;;;;4592776;19;20457;-28
2022/12/14 10:47:45;;;;;;;40.87;33.13;;;12.20;72.60;;;;;;4590524;19;20467;-28
2022/12/14 10:49:43;;;;;;;41.70;33.57;;;12.20;72.90;;;;;;4591247;19;20513;-28
2022/12/14 10:51:29;;;;;;;41.70;31.87;;;12.20;72.90;;;;;;4591026;19;21041;-29
2022/12/14 10:53:00;;;;;;;41.37;32.47;;;12.20;72.70;;;;;;4590155;19;20538;-28
2022/12/14 10:54:37;;;;;;;40.90;32.70;;;12.20;72.80;;;;;;4589560;19;20483;-28
2022/12/14 10:56:15;;;;;;;41.07;31.73;;;12.20;72.80;;;;;;4592244;19;20014;-28
2022/12/14 11:22:24;;;;;;;36.57;27.30;;;12.20;72.90;;;;;;4588948;19;21187;-30
2022/12/14 11:23:59;;;;;;;37.60;29.20;;;12.20;73.10;;;;;;4587635;19;21249;-31
2022/12/14 11:25:49;;;;;;;36.80;28.80;;;12.20;73.10;;;;;;4589338;19;20432;-30
2022/12/14 11:27:20;;;;;;;43.50;31.50;;;12.20;73.40;;;;;;4589187;19;20464;-33
2022/12/14 11:28:53;;;;;;;44.55;32.10;;;12.20;73.40;;;;;;4588671;19;20468;-37
2022/12/14 11:30:24;;;;;;;;;;;12.20;73.50;;;;;;4588435;19;20010;-36
2022/12/14 11:31:57;;;;;;;38.97;28.80;;;12.20;73.40;;;;;;4587313;19;19922;-28
2022/12/14 11:33:40;;;;;;;39.03;29.05;;;12.20;73.30;;;;;;4588434;19;20550;-28
2022/12/14 11:35:16;;;;;;;38.60;29.87;;;12.30;73.40;;;;;;4589001;19;20014;-33
2022/12/14 11:36:47;;;;;;;37.53;27.93;;;12.20;73.40;;;;;;4589844;19;20461;-34
2022/12/14 11:38:21;;;;;;;37.37;28.97;;;12.30;73.40;;;;;;4588877;19;20483;-28
2022/12/14 11:39:56;;;;;;;37.47;28.47;;;12.30;73.90;;;;;;4587848;19;21055;-31
2022/12/14 11:41:37;;;;;;;42.43;33.13;;;12.30;73.30;;;;;;4589139;19;20468;-32
2022/12/14 11:43:25;;;;;;;56.83;41.20;;;12.30;73.30;;;;;;4588722;19;20465;-31
2022/12/14 11:45:25;;;;;;;46.60;34.90;;;12.30;73.30;;;;;;4590607;19;20025;-31
2022/12/14 11:46:56;;;;;;;37.97;29.60;;;12.30;73.20;;;;;;4588156;19;20839;-28
2022/12/14 11:48:28;;;;;;;36.47;28.15;;;12.30;73.00;;;;;;4589843;19;20461;-32
2022/12/14 11:50:20;;;;;;;33.75;26.02;;;12.20;72.90;;;;;;4588768;19;20030;-29
2022/12/14 11:51:57;;;;;;;28.50;22.90;;;12.20;72.50;;;;;;4589380;19;20078;-32
2022/12/14 11:53:31;;;;;;;29.37;21.90;;;12.20;72.40;;;;;;4591078;19;20408;-35
2022/12/14 11:55:15;;;;;;;26.23;20.67;;;12.10;72.20;;;;;;4589691;19;20480;-30
2022/12/14 11:56:49;;;;;;;25.73;19.80;;;12.10;71.90;;;;;;4588838;19;20881;-30
2022/12/14 11:58:27;;;;;;;28.93;21.70;;;12.10;71.60;;;;;;4589393;19;20491;-29
2022/12/14 12:00:19;;;;;;;57.73;35.30;;;12.10;71.70;;;;;;4589413;19;20473;-30
2022/12/14 12:01:50;;;;;;;42.63;27.67;;;12.10;71.80;;;;;;4590362;19;20472;-30
2022/12/14 12:03:32;;;;;;;29.03;21.43;;;12.10;71.70;;;;;;4590472;19;20524;-30
2022/12/14 12:05:06;;;;;;;40.17;27.47;;;12.10;71.80;;;;;;4587922;19;21021;-28
2022/12/14 12:06:39;;;;;;;33.60;24.20;;;12.10;71.60;;;;;;4590110;19;20583;-34
2022/12/14 12:08:19;;;;;;;30.87;22.73;;;12.10;71.70;;;;;;4590956;19;20870;-34
2022/12/14 12:09:51;;;;;;;30.90;22.57;;;12.10;71.50;;;;;;4588657;19;20441;-33
2022/12/14 12:11:25;;;;;;;31.57;23.03;;;12.10;71.50;;;;;;4588229;19;20445;-28
2022/12/14 12:12:59;;;;;;;31.33;23.00;;;12.10;71.50;;;;;;4588468;19;21095;-31
2022/12/14 12:14:36;;;;;;;34.23;23.97;;;12.10;71.60;;;;;;4588333;19;20444;-34
2022/12/14 12:16:13;;;;;;;39.37;28.07;;;12.10;71.50;;;;;;4588700;19;20536;-28
2022/12/14 12:17:47;;;;;;;46.90;34.80;;;12.10;71.60;;;;;;4587987;19;21020;-33
2022/12/14 12:19:23;;;;;;;45.53;32.17;;;12.10;71.70;;;;;;4588926;19;20445;-37
2022/12/14 12:21:04;;;;;;;37.83;27.00;;;12.10;71.60;;;;;;4588923;19;20507;-34
2022/12/14 12:22:36;;;;;;;38.50;27.83;;;12.10;71.50;;;;;;4592486;19;20475;-36
2022/12/14 12:24:46;;;;;;;35.63;27.45;;;12.10;71.50;;;;;;4590154;19;20507;-31
2022/12/14 12:26:33;;;;;;;29.27;22.27;;;12.00;71.50;;;;;;4593375;19;20015;-32
2022/12/14 12:28:11;;;;;;;33.47;25.10;;;12.10;71.60;;;;;;4590335;19;20448;-29
2022/12/14 12:29:56;;;;;;;45.13;31.73;;;12.10;71.30;;;;;;4590828;19;20453;-29
2022/12/14 12:31:33;;;;;;;37.53;26.33;;;12.10;71.30;;;;;;4590127;19;20488;-30
2022/12/14 12:33:18;;;;;;;30.03;22.87;;;12.10;71.30;;;;;;4589278;19;20445;-32
2022/12/14 12:34:51;;;;;;;33.03;24.03;;;12.00;71.30;;;;;;4590402;19;20552;-33
2022/12/14 12:36:22;;;;;;;32.77;23.10;;;12.00;71.30;;;;;;4590080;19;20475;-30
2022/12/14 12:37:56;;;;;;;43.35;28.52;;;12.10;71.30;;;;;;4590983;19;20429;-29
2022/12/14 12:39:27;;;;;;;44.13;30.07;;;12.10;71.50;;;;;;4588944;19;20019;-36
2022/12/14 12:41:02;;;;;;;;;;;12.10;71.40;;;;;;4592902;19;20464;-31
2022/12/14 12:42:55;;;;;;;38.63;26.57;;;12.10;71.40;;;;;;4589743;19;19919;-29
2022/12/14 12:44:49;;;;;;;35.77;23.83;;;12.10;71.60;;;;;;4593003;19;20456;-33
2022/12/14 12:46:35;;;;;;;28.33;22.27;;;12.10;71.40;;;;;;4591660;19;20483;-35
2022/12/14 12:48:10;;;;;;;28.63;22.33;;;12.10;71.30;;;;;;4587608;19;20655;-29
2022/12/14 12:49:41;;;;;;;31.47;24.70;;;12.10;71.20;;;;;;4588015;19;21109;-29
2022/12/14 12:51:15;;;;;;;41.22;28.05;;;12.10;71.00;;;;;;4587615;19;20481;-30
2022/12/14 12:53:01;;;;;;;33.73;24.27;;;12.10;71.10;;;;;;4589874;19;20130;-30
2022/12/14 12:54:38;;;;;;;29.57;23.60;;;12.10;70.80;;;;;;4589460;19;21090;-32
2022/12/14 12:56:20;;;;;;;32.13;25.07;;;12.10;70.80;;;;;;4587951;19;21036;-29
2022/12/14 12:57:53;;;;;;;31.07;24.90;;;12.10;71.00;;;;;;4587147;19;20445;-29
2022/12/14 12:59:37;;;;;;;32.27;25.27;;;12.10;71.00;;;;;;4587172;19;20513;-33
2022/12/14 13:01:20;;;;;;;31.60;23.27;;;12.10;71.10;;;;;;4587680;19;20436;-34
2022/12/14 13:03:00;;;;;;;33.77;25.80;;;12.10;70.90;;;;;;4588479;19;20420;-37
2022/12/14 13:04:35;;;;;;;33.73;24.77;;;12.10;70.90;;;;;;4589454;19;20475;-38
2022/12/14 13:06:12;;;;;;;32.23;23.30;;;12.10;71.30;;;;;;4588172;19;20465;-34
2022/12/14 13:07:52;;;;;;;34.27;24.30;;;12.10;70.80;;;;;;4588186;19;20432;-32
2022/12/14 13:09:35;;;;;;;33.23;24.00;;;12.10;70.80;;;;;;4587857;19;20471;-30
2022/12/14 13:11:21;;;;;;;33.27;24.73;;;12.00;70.80;;;;;;4587075;19;20464;-29
2022/12/14 13:13:06;;;;;;;59.07;37.80;;;12.10;70.80;;;;;;4589361;19;21121;-29
2022/12/14 13:14:41;;;;;;;35.90;26.40;;;12.00;70.70;;;;;;4587586;19;20449;-30
2022/12/14 13:16:28;;;;;;;34.77;25.60;;;12.10;70.70;;;;;;4588787;19;20552;-32
2022/12/14 13:18:25;;;;;;;30.30;24.20;;;12.10;70.90;;;;;;4590182;19;20445;-30
2022/12/14 13:20:00;;;;;;;37.47;26.20;;;12.10;70.80;;;;;;4587384;19;20477;-33
2022/12/14 13:21:40;;;;;;;33.20;26.57;;;12.10;70.70;;;;;;4588645;19;20480;-30
2022/12/14 13:23:12;;;;;;;70.30;43.00;;;12.10;70.80;;;;;;4587674;19;20579;-29
2022/12/14 13:24:44;;;;;;;65.10;39.93;;;12.10;70.70;;;;;;4587660;19;20447;-33
2022/12/14 13:26:49;;;;;;;56.83;37.03;;;12.10;70.70;;;;;;4587816;19;20561;-28